Time;durP1;ratioP1;P1;durP2;ratioP2;P2;SDS_P1;SDS_P2;PMS_P1;PMS_P2;Temp;Humidity;BMP_temperature;BMP_pressure;BME280_temperature;BME280_humidity;BME280_pressure;Samples;Min_cycle;Max_cycle;Signal;HPM_P1;HPM_P2
2022/10/19 00:01:46;;;;;;;28.53;12.50;;;;;;;-141.97;67.06;47569.06;4995083;28;20530;-78
2022/10/19 00:04:18;;;;;;;23.73;11.77;;;;;;;-141.97;67.45;47567.13;4994970;28;20413;-78
2022/10/19 00:06:45;;;;;;;26.37;12.20;;;;;;;-141.97;67.70;47613.25;4995044;28;20415;-78
2022/10/19 00:09:18;;;;;;;20.70;11.00;;;;;;;-141.97;67.29;47549.84;4995533;28;20411;-77
2022/10/19 00:11:48;;;;;;;23.97;11.47;;;;;;;-141.97;67.20;47549.84;4994840;28;20481;-79
2022/10/19 00:14:19;;;;;;;21.57;11.00;;;;;;;-141.97;66.66;47584.44;4994920;28;20413;-78
2022/10/19 00:16:49;;;;;;;22.00;10.63;;;;;;;-141.97;66.68;47549.84;4994586;28;20891;-78
2022/10/19 00:19:22;;;;;;;18.90;10.33;;;;;;;-141.97;67.71;47569.06;4994798;28;20406;-79
2022/10/19 00:21:47;;;;;;;20.27;9.70;;;;;;;-141.97;67.90;47519.06;4994883;28;20964;-78
2022/10/19 00:24:19;;;;;;;21.00;11.40;;;;;;;-141.97;68.11;47576.75;4994849;28;20415;-78
2022/10/19 00:26:48;;;;;;;19.57;10.47;;;;;;;-141.97;67.38;47544.06;4994763;28;20164;-79
2022/10/19 00:29:17;;;;;;;20.90;10.33;;;;;;;-141.97;67.18;47534.44;4996343;28;20840;-77
2022/10/19 00:31:49;;;;;;;17.27;9.07;;;;;;;-141.97;67.16;47555.59;4995060;28;20419;-78
2022/10/19 00:34:18;;;;;;;18.90;9.00;;;;;;;-141.97;66.98;47542.16;4994486;28;20740;-78
2022/10/19 00:36:48;;;;;;;17.23;9.60;;;;;;;-141.97;66.60;47509.47;4994613;28;20410;-78
2022/10/19 00:39:18;;;;;;;17.73;8.90;;;;;;;-141.97;66.31;47572.91;4994733;28;20406;-78
2022/10/19 00:41:48;;;;;;;14.97;9.07;;;;;;;-141.97;66.48;47519.06;4993275;28;20457;-78
2022/10/19 00:44:18;;;;;;;14.60;8.60;;;;;;;-141.97;66.34;47544.06;4994374;28;20494;-78
2022/10/19 00:46:49;;;;;;;14.33;8.07;;;;;;;-141.97;66.22;47574.81;4994349;28;20490;-78
2022/10/19 00:49:27;;;;;;;15.17;8.57;;;;;;;-141.97;66.51;47584.44;4994199;28;20774;-78
2022/10/19 00:51:55;;;;;;;15.57;7.63;;;;;;;-141.97;66.29;47584.44;4993877;28;20421;-79
2022/10/19 00:54:21;;;;;;;15.40;7.77;;;;;;;-141.97;66.45;47553.69;4993654;28;20453;-79
2022/10/19 00:56:53;;;;;;;14.50;8.10;;;;;;;-141.97;65.93;47578.66;4994285;28;20875;-79
2022/10/19 00:59:24;;;;;;;15.67;8.30;;;;;;;-141.97;65.84;47576.75;4993923;28;20201;-79
2022/10/19 01:01:51;;;;;;;15.50;7.77;;;;;;;-141.97;65.76;47572.91;4976188;28;20415;-79
2022/10/19 01:04:22;;;;;;;15.30;8.03;;;;;;;-141.97;65.96;47576.75;4994038;28;20414;-78
2022/10/19 01:06:53;;;;;;;16.30;8.33;;;;;;;-141.97;65.68;47534.44;4993878;28;20403;-79
2022/10/19 01:09:21;;;;;;;14.50;8.03;;;;;;;-141.97;65.63;47530.59;4993850;28;20407;-78
2022/10/19 01:11:59;;;;;;;14.00;7.67;;;;;;;-141.97;65.80;47582.50;4993611;28;21006;-77
2022/10/19 01:14:43;;;;;;;16.10;8.27;;;;;;;-141.97;65.79;47569.06;4993292;28;20409;-77
2022/10/19 01:17:40;;;;;;;15.60;7.80;;;;;;;-141.97;65.67;47507.53;4993286;28;20409;-77
2022/10/19 01:20:32;;;;;;;17.10;8.33;;;;;;;-141.97;65.19;47540.22;4992905;28;20439;-76
2022/10/19 01:23:31;;;;;;;16.70;9.17;;;;;;;-141.97;65.86;47561.38;4993058;28;20409;-77
2022/10/19 01:26:23;;;;;;;19.03;9.47;;;;;;;-141.97;65.34;47572.91;4993040;28;20839;-77
2022/10/19 01:29:10;;;;;;;19.50;8.53;;;;;;;-141.97;65.19;47555.59;4993476;28;20432;-77
2022/10/19 01:31:46;;;;;;;17.00;9.30;;;;;;;-141.97;65.35;47592.13;4992965;28;20457;-77
2022/10/19 01:34:11;;;;;;;18.00;10.60;;;;;;;-141.97;65.64;47546.00;4993052;28;20417;-78
2022/10/19 01:37:04;;;;;;;16.67;8.90;;;;;;;-141.97;66.15;47557.53;4975099;28;20415;-78
2022/10/19 01:39:42;;;;;;;15.50;8.77;;;;;;;-141.97;65.86;47549.84;4992926;28;20198;-78
2022/10/19 01:42:37;;;;;;;15.07;8.93;;;;;;;-141.97;65.76;47538.28;4991561;28;20422;-78
2022/10/19 01:45:38;;;;;;;15.20;8.83;;;;;;;-141.97;64.89;47561.38;4992666;28;20958;-78
2022/10/19 01:48:11;;;;;;;14.70;8.67;;;;;;;-141.97;65.24;47557.53;4992119;28;20468;-79
2022/10/19 01:50:44;;;;;;;17.30;8.80;;;;;;;-141.97;65.58;47572.91;4992701;28;20465;-78
2022/10/19 01:53:12;;;;;;;20.10;9.20;;;;;;;-141.97;65.21;47574.81;4992734;28;20481;-77
2022/10/19 01:55:42;;;;;;;21.13;9.43;;;;;;;-141.97;65.08;47546.00;4992508;28;20428;-77
2022/10/19 01:58:11;;;;;;;19.43;9.30;;;;;;;-141.97;64.85;47569.06;4992753;28;20411;-77
2022/10/19 02:00:39;;;;;;;15.80;8.90;;;;;;;-141.97;64.72;47588.28;4992541;28;20827;-77
2022/10/19 02:03:06;;;;;;;17.00;8.73;;;;;;;-141.97;65.41;47595.97;4992499;28;20410;-76
2022/10/19 02:05:33;;;;;;;15.00;8.57;;;;;;;-141.97;65.75;47555.59;4992444;28;20484;-78
2022/10/19 02:08:08;;;;;;;15.20;9.10;;;;;;;-141.97;65.39;47569.06;4992389;28;20494;-77
2022/10/19 02:10:37;;;;;;;23.10;11.07;;;;;;;-141.97;64.95;47590.19;4992267;28;20461;-77
2022/10/19 02:13:03;;;;;;;23.07;12.17;;;;;;;-141.97;64.95;47561.38;4992308;28;20532;-78
2022/10/19 02:15:34;;;;;;;22.83;10.20;;;;;;;-141.97;64.82;47569.06;4992413;28;20398;-79
2022/10/19 02:18:01;;;;;;;17.63;9.37;;;;;;;-141.97;64.73;47569.06;4992392;28;20422;-78
2022/10/19 02:20:29;;;;;;;17.77;9.13;;;;;;;-141.97;64.98;47555.59;4992350;28;20403;-78
2022/10/19 02:23:05;;;;;;;14.77;8.43;;;;;;;-141.97;65.14;47565.22;4992770;28;20449;-78
2022/10/19 02:25:31;;;;;;;16.97;8.90;;;;;;;-141.97;66.22;47549.84;4992388;28;21426;-77
2022/10/19 02:28:02;;;;;;;17.13;9.50;;;;;;;-141.97;66.73;47524.84;4992508;28;20889;-78
2022/10/19 02:30:29;;;;;;;15.63;8.60;;;;;;;-141.97;67.23;47570.97;4992556;28;20449;-79
2022/10/19 02:32:59;;;;;;;15.97;9.03;;;;;;;-141.97;66.53;47553.69;4992840;28;20421;-78
2022/10/19 02:35:30;;;;;;;18.93;8.37;;;;;;;-141.97;66.71;47553.69;4992720;28;20859;-78
2022/10/19 02:38:04;;;;;;;19.57;8.77;;;;;;;-141.97;67.12;47572.91;4992839;28;20496;-78
2022/10/19 02:40:38;;;;;;;17.63;9.37;;;;;;;-141.97;67.23;47574.81;4975012;28;20414;-78
2022/10/19 02:43:09;;;;;;;15.47;8.47;;;;;;;-141.97;66.54;47553.69;4992151;28;20489;-78
2022/10/19 02:45:39;;;;;;;17.20;8.93;;;;;;;-141.97;65.99;47557.53;4992121;28;20410;-78
2022/10/19 02:48:10;;;;;;;18.00;9.03;;;;;;;-141.97;65.76;47565.22;4991961;28;20398;-78
2022/10/19 02:50:36;;;;;;;20.40;9.87;;;;;;;-141.97;65.61;47549.84;4995525;28;20438;-78
2022/10/19 02:53:01;;;;;;;17.10;9.43;;;;;;;-141.97;64.94;47595.97;4995916;28;20925;-79
2022/10/19 02:55:31;;;;;;;19.20;10.10;;;;;;;-141.97;65.21;47538.28;4996316;28;20167;-78
2022/10/19 02:58:01;;;;;;;18.30;9.67;;;;;;;-141.97;65.34;47584.44;4996419;28;20187;-78
2022/10/19 03:00:32;;;;;;;15.87;9.33;;;;;;;-141.97;65.38;47522.91;4996296;28;20402;-78
2022/10/19 03:03:02;;;;;;;20.80;9.33;;;;;;;-141.97;65.30;47542.16;4996184;28;20953;-78
2022/10/19 03:05:32;;;;;;;17.53;9.13;;;;;;;-141.97;65.17;47576.75;4996246;28;20403;-78
2022/10/19 03:08:02;;;;;;;18.97;9.07;;;;;;;-141.97;65.29;47584.44;4996382;28;20767;-78
2022/10/19 03:10:34;;;;;;;18.03;9.50;;;;;;;-141.97;65.25;47580.59;4995908;28;20961;-78
2022/10/19 03:13:02;;;;;;;19.80;9.50;;;;;;;-141.97;65.40;47551.75;4995908;28;20474;-78
2022/10/19 03:15:33;;;;;;;36.53;17.40;;;;;;;-141.97;65.02;47569.06;4996100;28;20405;-78
2022/10/19 03:18:10;;;;;;;27.33;12.37;;;;;;;-141.97;64.90;47542.16;4995979;28;20411;-78
2022/10/19 03:20:35;;;;;;;14.17;8.07;;;;;;;-141.97;65.56;47572.91;4995930;28;20394;-78
2022/10/19 03:23:03;;;;;;;18.20;9.00;;;;;;;-141.97;65.59;47553.69;4995859;28;20501;-76
2022/10/19 03:25:34;;;;;;;15.97;9.07;;;;;;;-141.97;65.39;47569.06;4996303;28;20170;-76
2022/10/19 03:28:04;;;;;;;17.90;8.93;;;;;;;-141.97;65.82;47542.16;4996520;28;20451;-76
2022/10/19 03:30:34;;;;;;;17.97;9.10;;;;;;;-141.97;65.61;47521.00;4995776;28;20462;-77
2022/10/19 03:33:04;;;;;;;18.60;9.17;;;;;;;-141.97;65.42;47601.72;4995749;28;20411;-78
2022/10/19 03:35:35;;;;;;;18.60;9.30;;;;;;;-141.97;65.47;47574.81;4995781;28;20442;-78
2022/10/19 03:38:05;;;;;;;17.70;9.13;;;;;;;-141.97;65.99;47567.13;4995591;28;20502;-78
2022/10/19 03:40:36;;;;;;;21.40;9.90;;;;;;;-141.97;66.75;47530.59;4995848;28;20771;-78
2022/10/19 03:43:07;;;;;;;18.60;9.20;;;;;;;-141.97;67.30;47595.97;4995563;28;20958;-78
2022/10/19 03:45:36;;;;;;;23.03;9.93;;;;;;;-141.97;68.65;47588.28;4995380;28;20490;-78
2022/10/19 03:48:06;;;;;;;18.13;9.43;;;;;;;-141.97;68.96;47584.44;4995496;28;20734;-77
2022/10/19 03:50:36;;;;;;;17.37;8.90;;;;;;;-141.97;68.14;47555.59;4995096;28;20458;-77
2022/10/19 03:53:12;;;;;;;16.83;8.73;;;;;;;-141.97;68.29;47567.13;4995310;28;20422;-77
2022/10/19 03:55:37;;;;;;;15.50;8.47;;;;;;;-141.97;67.88;47567.13;4994699;28;20402;-78
2022/10/19 03:58:07;;;;;;;18.47;9.23;;;;;;;-141.97;67.41;47542.16;4995151;28;20497;-78
2022/10/19 04:00:38;;;;;;;22.27;9.77;;;;;;;-141.97;67.23;47515.22;4995308;28;20715;-78
2022/10/19 04:03:07;;;;;;;19.33;9.53;;;;;;;-141.97;67.83;47557.53;4994814;28;20469;-78
2022/10/19 04:05:37;;;;;;;17.13;9.20;;;;;;;-141.97;67.94;47561.38;4994905;28;20438;-77
2022/10/19 04:08:09;;;;;;;17.30;8.87;;;;;;;-141.97;68.11;47572.91;4994963;28;20442;-76
2022/10/19 04:10:40;;;;;;;16.03;8.67;;;;;;;-141.97;68.01;47580.59;4994584;28;20958;-78
2022/10/19 04:13:08;;;;;;;19.50;9.13;;;;;;;-141.97;67.76;47557.53;4994352;28;20506;-77
2022/10/19 04:15:38;;;;;;;18.10;9.10;;;;;;;-141.97;68.47;47561.38;4994651;28;20876;-79
2022/10/19 04:18:16;;;;;;;16.90;9.10;;;;;;;-141.97;69.06;47561.38;4994903;28;20403;-77
2022/10/19 04:20:42;;;;;;;18.20;9.13;;;;;;;-141.97;68.61;47563.28;4994234;28;20399;-79
2022/10/19 04:23:09;;;;;;;18.53;9.00;;;;;;;-141.97;68.69;47563.28;4995600;28;20779;-79
2022/10/19 04:25:39;;;;;;;18.77;9.13;;;;;;;-141.97;68.31;47561.38;4996792;28;20406;-78
2022/10/19 04:28:11;;;;;;;21.30;11.10;;;;;;;-141.97;68.69;47586.34;4994732;28;20399;-79
2022/10/19 04:30:39;;;;;;;24.10;12.10;;;;;;;-141.97;68.81;47549.84;4994106;28;20446;-79
2022/10/19 04:33:17;;;;;;;;;;;;;;;;;;;;;
2022/10/19 04:35:43;;;;;;;18.77;9.63;;;;;;;-141.97;68.65;47551.75;4993503;28;20464;-78
2022/10/19 04:38:10;;;;;;;20.03;10.33;;;;;;;-141.97;68.53;47580.59;4994084;28;20493;-78
2022/10/19 04:40:45;;;;;;;22.00;10.53;;;;;;;-141.97;68.16;47553.69;4994391;28;20155;-78
2022/10/19 04:43:11;;;;;;;20.97;11.30;;;;;;;-141.97;68.28;47546.00;4993831;28;20402;-78
2022/10/19 04:45:36;;;;;;;19.90;10.03;;;;;;;-141.97;68.40;47553.69;4981427;28;20476;-78
2022/10/19 04:48:04;;;;;;;21.60;10.50;;;;;;;-141.97;68.86;47563.28;4973612;28;20778;-78
2022/10/19 04:50:29;;;;;;;20.23;10.57;;;;;;;-141.97;68.62;47584.44;5001559;28;20486;-78
2022/10/19 04:52:55;;;;;;;19.10;10.17;;;;;;;-141.97;68.68;47580.59;5007953;28;20197;-78
2022/10/19 04:55:20;;;;;;;18.60;10.27;;;;;;;-141.97;68.32;47557.53;4991333;28;20205;-78
2022/10/19 04:57:46;;;;;;;19.73;9.97;;;;;;;-141.97;67.98;47549.84;4990618;28;20740;-78
2022/10/19 05:00:14;;;;;;;26.37;13.00;;;;;;;-141.97;68.39;47496.00;4990536;28;20201;-78
2022/10/19 05:02:44;;;;;;;51.83;25.03;;;;;;;-141.97;68.85;47569.06;4991632;28;20182;-79
2022/10/19 05:05:11;;;;;;;31.57;14.40;;;;;;;-141.97;68.48;47563.28;4992082;28;20961;-78
2022/10/19 05:07:36;;;;;;;38.83;18.50;;;;;;;-141.97;69.05;47576.75;4990914;28;20790;-76
2022/10/19 05:10:02;;;;;;;25.67;13.60;;;;;;;-141.97;69.03;47549.84;4973509;28;20577;-76
2022/10/19 05:12:28;;;;;;;26.57;12.60;;;;;;;-141.97;68.77;47559.44;4970609;28;20235;-77
2022/10/19 05:14:53;;;;;;;19.90;10.90;;;;;;;-141.97;68.43;47563.28;4970678;28;20510;-78
2022/10/19 05:17:19;;;;;;;23.10;10.70;;;;;;;-141.97;68.89;47549.84;4986314;28;20187;-78
2022/10/19 05:19:44;;;;;;;17.80;9.23;;;;;;;-141.97;68.43;47561.38;4976538;28;20187;-78
2022/10/19 05:22:16;;;;;;;23.40;9.93;;;;;;;-141.97;68.71;47572.91;4970994;28;20209;-78
2022/10/19 05:24:43;;;;;;;19.27;10.40;;;;;;;-141.97;67.95;47563.28;4953101;28;20214;-78
2022/10/19 05:27:21;;;;;;;21.60;11.10;;;;;;;-141.97;67.43;47588.28;4970861;28;20436;-78
2022/10/19 05:29:47;;;;;;;27.80;12.93;;;;;;;-141.97;67.42;47572.91;4970147;28;20438;-78
2022/10/19 05:32:15;;;;;;;25.70;12.47;;;;;;;-141.97;67.16;47561.38;4971348;28;20439;-79
2022/10/19 05:34:47;;;;;;;27.07;12.67;;;;;;;-141.97;67.58;47569.06;4970850;28;20180;-78
2022/10/19 05:37:16;;;;;;;25.73;10.80;;;;;;;-141.97;67.62;47594.03;4970566;28;20497;-78
2022/10/19 05:39:44;;;;;;;21.50;10.83;;;;;;;-141.97;67.10;47601.72;4987682;28;20438;-78
2022/10/19 05:42:15;;;;;;;20.97;10.80;;;;;;;-141.97;66.84;47599.81;4993593;28;20791;-78
2022/10/19 05:44:45;;;;;;;24.23;11.80;;;;;;;-141.97;67.04;47557.53;4992993;28;20403;-78
2022/10/19 05:47:15;;;;;;;23.10;11.17;;;;;;;-141.97;66.37;47588.28;4992484;28;20402;-77
2022/10/19 05:49:46;;;;;;;22.00;11.70;;;;;;;-141.97;65.68;47578.66;4992715;28;20411;-77
2022/10/19 05:52:16;;;;;;;23.07;12.60;;;;;;;-141.97;65.76;47557.53;4993017;28;20421;-77
2022/10/19 05:54:46;;;;;;;23.07;12.00;;;;;;;-141.97;65.40;47553.69;4993273;28;20410;-78
2022/10/19 05:57:16;;;;;;;27.13;11.20;;;;;;;-141.97;64.52;47557.53;4991765;28;20513;-76
2022/10/19 05:59:41;;;;;;;23.83;12.73;;;;;;;-141.97;64.20;47580.59;4993099;28;20464;-78
2022/10/19 06:02:16;;;;;;;22.90;12.07;;;;;;;-141.97;64.12;47582.50;4992387;28;20971;-77
2022/10/19 06:04:48;;;;;;;29.87;15.40;;;;;;;-141.97;63.30;47578.66;4992456;28;20493;-78
2022/10/19 06:07:17;;;;;;;36.43;19.37;;;;;;;-141.97;63.03;47590.19;4992487;28;20425;-78
2022/10/19 06:09:47;;;;;;;42.60;21.73;;;;;;;-141.97;63.41;47559.44;4992911;28;20430;-76
2022/10/19 06:12:19;;;;;;;36.93;19.10;;;;;;;-141.97;62.99;47572.91;4992413;28;20486;-78
2022/10/19 06:14:50;;;;;;;27.03;14.17;;;;;;;-141.97;62.33;47549.84;4992415;28;20477;-79
2022/10/19 06:17:18;;;;;;;30.23;14.57;;;;;;;-141.97;61.94;47578.66;4992661;28;20407;-79
2022/10/19 06:19:48;;;;;;;22.33;11.80;;;;;;;-141.97;61.48;47603.66;4993060;28;20410;-78
2022/10/19 06:22:20;;;;;;;32.43;15.50;;;;;;;-141.97;60.24;47542.16;4993162;28;20403;-78
2022/10/19 06:24:48;;;;;;;24.60;12.73;;;;;;;-141.97;59.94;47578.66;4995562;28;20460;-78
2022/10/19 06:27:19;;;;;;;33.90;12.30;;;;;;;-141.97;59.82;47551.75;4997227;28;20910;-77
2022/10/19 06:29:50;;;;;;;21.33;10.63;;;;;;;-141.97;59.19;47574.81;4996910;28;20417;-77
2022/10/19 06:32:19;;;;;;;18.67;9.33;;;;;;;-141.97;59.67;47588.28;4996528;28;20406;-78
2022/10/19 06:34:49;;;;;;;20.40;9.93;;;;;;;-141.97;58.46;47557.53;4996608;28;20406;-78
2022/10/19 06:37:27;;;;;;;20.87;10.73;;;;;;;-141.97;57.24;47565.22;4979072;28;20429;-77
2022/10/19 06:39:53;;;;;;;19.87;9.63;;;;;;;-141.97;57.24;47599.81;4988214;28;20403;-76
2022/10/19 06:42:20;;;;;;;17.63;9.50;;;;;;;-141.97;55.99;47574.81;4996173;28;20456;-77
2022/10/19 06:44:50;;;;;;;18.67;8.73;;;;;;;-141.97;54.74;47569.06;4996379;28;20202;-77
2022/10/19 06:47:44;;;;;;;18.57;9.10;;;;;;;-141.97;53.76;47599.81;4996492;28;20209;-78
2022/10/19 06:50:10;;;;;;;20.13;8.57;;;;;;;-141.97;53.21;47580.59;4995730;28;20206;-77
2022/10/19 06:52:36;;;;;;;21.60;8.67;;;;;;;-141.97;52.00;47619.03;4995689;28;20179;-77
2022/10/19 06:55:02;;;;;;;16.97;9.30;;;;;;;-141.97;51.64;47559.44;4995817;28;20170;-77
2022/10/19 06:57:27;;;;;;;21.97;10.77;;;;;;;-141.97;51.24;47534.44;4995683;28;20167;-77
2022/10/19 06:59:53;;;;;;;19.97;10.60;;;;;;;-141.97;50.96;47599.81;4995931;28;20186;-77
2022/10/19 07:02:24;;;;;;;22.17;11.00;;;;;;;-141.97;50.03;47588.28;4995928;28;20156;-78
2022/10/19 07:04:52;;;;;;;25.20;11.43;;;;;;;-141.97;49.44;47567.13;4996128;28;20251;-77
2022/10/19 07:07:22;;;;;;;24.43;10.80;;;;;;;-141.97;48.82;47559.44;4995914;28;20222;-76
2022/10/19 07:09:53;;;;;;;24.40;10.73;;;;;;;-141.97;47.54;47519.06;4995993;28;20195;-77
2022/10/19 07:12:23;;;;;;;19.40;9.17;;;;;;;-141.97;46.88;47613.25;4995664;28;20283;-76
2022/10/19 07:14:54;;;;;;;21.90;10.40;;;;;;;-141.97;46.21;47570.97;4996115;28;20175;-76
2022/10/19 07:17:23;;;;;;;17.43;9.07;;;;;;;-141.97;45.68;47584.44;4995757;28;20199;-76
2022/10/19 07:20:01;;;;;;;17.57;9.00;;;;;;;-141.97;45.24;47580.59;4995928;28;20160;-77
2022/10/19 07:22:26;;;;;;;14.63;8.43;;;;;;;-141.97;44.22;47549.84;4994860;28;20265;-77
2022/10/19 07:24:54;;;;;;;20.33;8.77;;;;;;;-141.97;43.17;47572.91;4995700;28;20175;-78
2022/10/19 07:27:26;;;;;;;15.83;8.53;;;;;;;-141.97;42.87;47542.16;4995673;28;20229;-77
2022/10/19 07:29:54;;;;;;;15.60;8.23;;;;;;;-141.97;42.86;47555.59;4995666;28;20164;-77
2022/10/19 07:32:27;;;;;;;17.17;8.90;;;;;;;-141.97;42.38;47569.06;4995812;28;20546;-77
2022/10/19 07:34:55;;;;;;;15.37;8.73;;;;;;;-141.97;41.23;47542.16;4995004;28;20175;-77
2022/10/19 07:37:26;;;;;;;14.47;7.93;;;;;;;-141.97;41.19;47499.84;4995972;28;20163;-77
2022/10/19 07:39:57;;;;;;;15.00;8.37;;;;;;;-141.97;41.09;47580.59;4995942;28;20171;-78
2022/10/19 07:42:29;;;;;;;18.83;7.50;;;;;;;-141.97;40.26;47561.38;4995900;28;20796;-79
2022/10/19 07:44:56;;;;;;;12.90;7.73;;;;;;;-141.97;39.75;47530.59;4995574;28;20172;-80
2022/10/19 07:47:27;;;;;;;19.07;7.83;;;;;;;-141.97;39.56;47570.97;4995490;28;20182;-77
2022/10/19 07:49:56;;;;;;;13.93;7.53;;;;;;;-141.97;39.13;47557.53;4995508;28;20163;-78
2022/10/19 07:52:27;;;;;;;33.30;17.00;;;;;;;-141.97;38.63;47538.28;4995588;28;20159;-77
2022/10/19 07:54:59;;;;;;;19.10;10.77;;;;;;;-141.97;38.63;47569.06;4995463;28;20276;-78
2022/10/19 07:57:27;;;;;;;13.37;8.70;;;;;;;-141.97;37.88;47496.00;4995556;28;20160;-79
2022/10/19 07:59:57;;;;;;;12.63;8.17;;;;;;;-141.97;37.89;47546.00;4995598;28;20168;-78
2022/10/19 08:02:28;;;;;;;12.00;7.80;;;;;;;-141.97;37.53;47536.38;4995254;28;20580;-77
2022/10/19 08:04:58;;;;;;;11.67;7.20;;;;;;;-141.97;36.94;47496.00;4995092;28;20174;-77
2022/10/19 08:07:28;;;;;;;13.03;7.73;;;;;;;-141.97;36.58;47559.44;4995180;28;20160;-77
2022/10/19 08:09:59;;;;;;;15.03;6.87;;;;;;;-141.97;36.75;47547.91;4994997;28;20163;-78
2022/10/19 08:12:28;;;;;;;13.30;7.20;;;;;;;-141.97;36.55;47542.16;4994730;28;20231;-77
2022/10/19 08:14:59;;;;;;;12.93;7.70;;;;;;;-141.97;36.41;47501.78;4995133;28;20164;-77
2022/10/19 08:17:29;;;;;;;13.13;8.03;;;;;;;-141.97;36.22;47546.00;4994785;28;20189;-77
2022/10/19 08:19:59;;;;;;;13.13;7.77;;;;;;;-141.97;36.11;47538.28;4995047;28;20171;-77
2022/10/19 08:22:37;;;;;;;12.73;7.47;;;;;;;-141.97;35.89;47503.69;4994837;28;20175;-77
2022/10/19 08:25:02;;;;;;;10.77;7.03;;;;;;;-141.97;35.42;47492.16;4987971;28;20167;-78
2022/10/19 08:27:30;;;;;;;13.23;6.20;;;;;;;-141.97;35.16;47542.16;4994633;28;20166;-78
2022/10/19 08:30:00;;;;;;;14.07;6.37;;;;;;;-141.97;34.60;47515.22;4994487;28;20174;-78
2022/10/19 08:32:30;;;;;;;10.47;6.43;;;;;;;-141.97;34.82;47511.38;4994934;28;20171;-77
2022/10/19 08:35:07;;;;;;;10.63;6.13;;;;;;;-141.97;34.60;47509.47;4994671;28;20188;-78
2022/10/19 08:37:33;;;;;;;10.73;6.73;;;;;;;-141.97;34.41;47486.41;4994054;28;20175;-77
2022/10/19 08:40:01;;;;;;;12.47;6.83;;;;;;;-141.97;33.97;47482.56;4994497;28;20225;-78
2022/10/19 08:42:50;;;;;;;13.37;7.50;;;;;;;-141.97;33.72;47476.78;4994443;28;20640;-77
2022/10/19 08:45:25;;;;;;;12.17;7.00;;;;;;;-141.97;33.67;47499.84;4994112;28;20246;-77
2022/10/19 08:48:12;;;;;;;11.00;7.43;;;;;;;-141.97;33.70;47509.47;4985134;28;20513;-77
2022/10/19 08:50:41;;;;;;;12.57;7.30;;;;;;;-141.97;33.58;47507.53;4993612;28;20644;-76
2022/10/19 08:53:12;;;;;;;12.30;6.97;;;;;;;-141.97;33.75;47513.31;4993870;28;20549;-77
2022/10/19 08:56:16;;;;;;;13.10;7.27;;;;;;;-141.97;33.69;47469.09;4993584;28;20210;-78
2022/10/19 08:58:52;;;;;;;10.60;6.70;;;;;;;-141.97;33.33;47457.56;4895754;29;20632;-77
2022/10/19 09:01:35;;;;;;;12.60;6.97;;;;;;;-141.97;33.19;47517.16;4895804;29;20682;-76
2022/10/19 09:04:05;;;;;;;11.57;7.27;;;;;;;-141.97;33.23;47538.28;4895957;29;20202;-78
2022/10/19 09:06:43;;;;;;;10.73;6.90;;;;;;;-141.97;32.99;47496.00;4895993;29;20182;-78
2022/10/19 09:09:11;;;;;;;13.97;6.90;;;;;;;-141.97;32.19;47474.88;4895661;29;20277;-78
2022/10/19 09:11:43;;;;;;;11.27;6.60;;;;;;;-141.97;32.08;47530.59;4895411;29;20242;-79
2022/10/19 09:14:26;;;;;;;12.00;6.93;;;;;;;-141.97;32.00;47471.03;4895971;29;20787;-80
2022/10/19 09:16:58;;;;;;;13.70;7.27;;;;;;;-141.97;32.30;47484.47;4896097;29;20439;-78
2022/10/19 09:19:28;;;;;;;14.70;7.47;;;;;;;-141.97;32.26;47496.00;4879959;29;20666;-78
2022/10/19 09:22:04;;;;;;;12.47;7.00;;;;;;;-141.97;31.83;47471.03;4880182;29;20198;-76
2022/10/19 09:24:36;;;;;;;11.07;7.60;;;;;;;-141.97;31.76;47476.78;4896394;29;20571;-77
2022/10/19 09:27:19;;;;;;;10.50;7.10;;;;;;;-141.97;31.47;47480.63;4897363;29;20182;-78
2022/10/19 09:29:56;;;;;;;11.50;6.73;;;;;;;-141.97;31.42;47497.94;4896402;29;20690;-78
2022/10/19 09:32:27;;;;;;;11.03;6.47;;;;;;;-141.97;30.98;47586.34;4896538;29;20182;-77
2022/10/19 09:34:57;;;;;;;10.17;6.50;;;;;;;-141.97;31.11;47492.16;4926946;28;20195;-77
2022/10/19 09:37:23;;;;;;;12.07;6.50;;;;;;;-141.97;30.89;47499.84;4992776;28;20683;-77
2022/10/19 09:39:49;;;;;;;10.90;7.00;;;;;;;-141.97;30.88;47457.56;4992850;28;20156;-78
2022/10/19 09:42:31;;;;;;;18.30;7.17;;;;;;;-141.97;31.11;47497.94;4992741;28;20553;-77
2022/10/19 09:44:59;;;;;;;12.13;6.70;;;;;;;-141.97;30.32;47507.53;4992633;28;20175;-77
2022/10/19 09:47:38;;;;;;;12.30;6.50;;;;;;;-141.97;30.05;47492.16;4992948;28;20202;-77
2022/10/19 09:50:24;;;;;;;12.77;6.53;;;;;;;-141.97;30.12;47476.78;4993080;28;20545;-77
2022/10/19 09:52:51;;;;;;;12.60;6.63;;;;;;;-141.97;29.84;47453.72;4992785;28;20210;-77
2022/10/19 09:55:19;;;;;;;14.53;7.17;;;;;;;-141.97;29.75;47449.88;4992689;28;20172;-77
2022/10/19 09:57:49;;;;;;;11.37;6.40;;;;;;;-141.97;29.64;47453.72;4992552;28;20175;-77
2022/10/19 10:00:23;;;;;;;12.23;6.43;;;;;;;-141.97;29.47;47472.94;4992620;28;20163;-77
2022/10/19 10:02:51;;;;;;;10.67;6.37;;;;;;;-141.97;29.63;47469.09;4992633;28;20273;-77
2022/10/19 10:05:17;;;;;;;10.50;6.90;;;;;;;-141.97;30.28;47661.31;4992698;28;20623;-77
2022/10/19 10:07:43;;;;;;;10.93;7.00;;;;;;;-141.97;29.96;47472.94;4992488;28;20159;-77
2022/10/19 10:10:19;;;;;;;13.33;6.23;;;;;;;-141.97;29.79;47463.34;4992569;28;20198;-78
2022/10/19 10:12:46;;;;;;;7.83;5.30;;;;;;;-141.97;29.43;47455.66;4992454;28;20221;-77
2022/10/19 10:15:24;;;;;;;9.97;5.50;;;;;;;-141.97;29.60;47442.19;4992487;28;20604;-77
2022/10/19 10:17:50;;;;;;;11.90;5.50;;;;;;;-141.97;29.29;47494.09;4993084;28;20524;-78
2022/10/19 10:20:29;;;;;;;6.90;5.13;;;;;;;-141.97;29.67;47492.16;4992390;28;20151;-78
2022/10/19 10:23:01;;;;;;;10.83;5.60;;;;;;;-141.97;29.31;47457.56;4984868;28;20174;-77
2022/10/19 10:25:32;;;;;;;8.53;6.40;;;;;;;-141.97;29.37;47476.78;4992730;28;20169;-78
2022/10/19 10:28:01;;;;;;;9.63;6.40;;;;;;;-141.97;28.98;47459.50;4992571;28;20174;-77
2022/10/19 10:30:35;;;;;;;9.23;5.80;;;;;;;-141.97;29.28;47455.66;4992701;28;20191;-77
2022/10/19 10:33:01;;;;;;;8.63;5.43;;;;;;;-141.97;29.56;47503.69;4992431;28;20624;-77
2022/10/19 10:35:34;;;;;;;10.27;5.47;;;;;;;-141.97;29.25;47453.72;4992430;28;20167;-76
2022/10/19 10:38:31;;;;;;;7.77;5.50;;;;;;;-141.97;29.01;47444.13;4992713;28;20199;-77
2022/10/19 10:41:02;;;;;;;9.80;5.73;;;;;;;-141.97;29.09;47482.56;4992138;28;20168;-77
2022/10/19 10:43:33;;;;;;;13.57;6.67;;;;;;;-141.97;28.80;47486.41;4992300;28;20171;-78
2022/10/19 10:46:07;;;;;;;10.30;5.47;;;;;;;-141.97;28.93;47476.78;4992259;28;20286;-78
2022/10/19 10:48:32;;;;;;;15.97;6.27;;;;;;;-141.97;28.82;47499.84;4992219;28;20175;-77
2022/10/19 10:51:00;;;;;;;9.17;5.57;;;;;;;-141.97;28.61;47484.47;4991996;28;20254;-77
2022/10/19 10:53:34;;;;;;;8.97;5.30;;;;;;;-141.97;29.00;47446.03;4992036;28;20166;-77
2022/10/19 10:56:00;;;;;;;9.07;5.57;;;;;;;-141.97;28.84;47484.47;4991846;28;20594;-78
2022/10/19 10:58:46;;;;;;;8.07;5.83;;;;;;;-141.97;28.72;47447.97;4991974;28;20222;-78
2022/10/19 11:01:53;;;;;;;9.30;5.07;;;;;;;-141.97;28.68;47499.84;4992509;28;20623;-77
2022/10/19 11:04:24;;;;;;;8.03;5.20;;;;;;;-141.97;28.55;47492.16;4894058;29;20250;-78
2022/10/19 11:06:58;;;;;;;6.73;4.80;;;;;;;-141.97;28.58;47457.56;4894098;29;20175;-77
2022/10/19 11:09:41;;;;;;;11.93;6.20;;;;;;;-141.97;28.70;47457.56;4894126;29;20718;-78
2022/10/19 11:12:15;;;;;;;12.87;8.30;;;;;;;-141.97;28.46;47446.03;4898281;29;20382;-77
2022/10/19 11:15:05;;;;;;;11.30;6.57;;;;;;;-141.97;28.46;47609.41;4898360;29;20197;-77
2022/10/19 11:17:35;;;;;;;7.83;4.73;;;;;;;-141.97;28.49;47482.56;4897729;29;20560;-77
2022/10/19 11:20:00;;;;;;;10.20;5.30;;;;;;;-141.97;28.29;47422.97;4897755;29;20670;-77
2022/10/19 11:22:39;;;;;;;13.87;5.53;;;;;;;-141.97;28.39;47444.13;4897621;29;20195;-77
2022/10/19 11:25:16;;;;;;;10.80;5.00;;;;;;;-141.97;28.56;47474.88;4897527;29;20274;-77
2022/10/19 11:27:48;;;;;;;7.17;5.00;;;;;;;-141.97;28.35;47480.63;4898053;29;20611;-77
2022/10/19 11:30:22;;;;;;;9.50;5.43;;;;;;;-141.97;28.06;47476.78;4897899;29;20225;-78